sensor_id;sensor_type;location;lat;lon;timestamp;P1;durP1;ratioP1;P2;durP2;ratioP2
39324;SDS011;25037;49.488;9.900;2023-02-15T00:01:39;19.90;;;12.93;;
39324;SDS011;25037;49.488;9.900;2023-02-15T00:04:08;17.40;;;11.88;;
39324;SDS011;25037;49.488;9.900;2023-02-15T00:06:35;18.27;;;11.73;;
39324;SDS011;25037;49.488;9.900;2023-02-15T00:09:02;17.23;;;11.48;;
39324;SDS011;25037;49.488;9.900;2023-02-15T00:11:29;18.48;;;11.55;;
39324;SDS011;25037;49.488;9.900;2023-02-15T00:14:31;17.25;;;11.57;;
39324;SDS011;25037;49.488;9.900;2023-02-15T00:16:58;20.42;;;13.07;;
39324;SDS011;25037;49.488;9.900;2023-02-15T00:19:26;17.30;;;11.20;;
39324;SDS011;25037;49.488;9.900;2023-02-15T00:21:52;17.65;;;12.57;;
39324;SDS011;25037;49.488;9.900;2023-02-15T00:24:19;19.15;;;13.48;;
39324;SDS011;25037;49.488;9.900;2023-02-15T00:26:47;20.33;;;12.75;;
39324;SDS011;25037;49.488;9.900;2023-02-15T00:29:14;20.17;;;13.18;;
39324;SDS011;25037;49.488;9.900;2023-02-15T00:31:42;18.67;;;13.10;;
39324;SDS011;25037;49.488;9.900;2023-02-15T00:34:20;19.40;;;12.23;;
39324;SDS011;25037;49.488;9.900;2023-02-15T00:36:51;18.02;;;12.25;;
39324;SDS011;25037;49.488;9.900;2023-02-15T00:39:18;19.45;;;12.85;;
39324;SDS011;25037;49.488;9.900;2023-02-15T00:41:46;20.80;;;13.07;;
39324;SDS011;25037;49.488;9.900;2023-02-15T00:44:13;17.95;;;12.55;;
39324;SDS011;25037;49.488;9.900;2023-02-15T00:46:41;17.63;;;11.52;;
39324;SDS011;25037;49.488;9.900;2023-02-15T00:49:08;16.75;;;10.70;;
39324;SDS011;25037;49.488;9.900;2023-02-15T00:51:35;17.77;;;11.57;;
39324;SDS011;25037;49.488;9.900;2023-02-15T00:54:02;17.60;;;11.82;;
39324;SDS011;25037;49.488;9.900;2023-02-15T00:56:28;17.35;;;10.85;;
39324;SDS011;25037;49.488;9.900;2023-02-15T00:58:55;18.42;;;11.38;;
39324;SDS011;25037;49.488;9.900;2023-02-15T01:01:22;14.93;;;10.95;;
39324;SDS011;25037;49.488;9.900;2023-02-15T01:03:49;14.80;;;10.85;;
39324;SDS011;25037;49.488;9.900;2023-02-15T01:06:16;19.55;;;12.02;;
39324;SDS011;25037;49.488;9.900;2023-02-15T01:08:43;15.80;;;10.38;;
39324;SDS011;25037;49.488;9.900;2023-02-15T01:11:15;17.23;;;11.13;;
39324;SDS011;25037;49.488;9.900;2023-02-15T01:13:52;15.30;;;10.27;;
39324;SDS011;25037;49.488;9.900;2023-02-15T01:16:22;17.00;;;11.23;;
39324;SDS011;25037;49.488;9.900;2023-02-15T01:18:50;15.95;;;10.25;;
39324;SDS011;25037;49.488;9.900;2023-02-15T01:21:18;16.55;;;10.98;;
39324;SDS011;25037;49.488;9.900;2023-02-15T01:23:47;16.63;;;11.40;;
39324;SDS011;25037;49.488;9.900;2023-02-15T01:26:14;17.08;;;10.52;;
39324;SDS011;25037;49.488;9.900;2023-02-15T01:28:41;17.92;;;11.35;;
39324;SDS011;25037;49.488;9.900;2023-02-15T01:31:09;16.45;;;11.02;;
39324;SDS011;25037;49.488;9.900;2023-02-15T01:33:38;16.35;;;11.18;;
39324;SDS011;25037;49.488;9.900;2023-02-15T01:36:05;17.52;;;11.32;;
39324;SDS011;25037;49.488;9.900;2023-02-15T01:38:32;17.52;;;11.48;;
39324;SDS011;25037;49.488;9.900;2023-02-15T01:41:00;17.33;;;10.77;;
39324;SDS011;25037;49.488;9.900;2023-02-15T01:43:46;16.05;;;10.77;;
39324;SDS011;25037;49.488;9.900;2023-02-15T01:46:15;16.25;;;11.02;;
39324;SDS011;25037;49.488;9.900;2023-02-15T01:48:48;15.50;;;10.52;;
39324;SDS011;25037;49.488;9.900;2023-02-15T01:51:20;16.40;;;11.13;;
39324;SDS011;25037;49.488;9.900;2023-02-15T01:53:53;15.40;;;10.35;;
39324;SDS011;25037;49.488;9.900;2023-02-15T01:56:26;17.65;;;10.88;;
39324;SDS011;25037;49.488;9.900;2023-02-15T01:58:56;14.55;;;10.65;;
39324;SDS011;25037;49.488;9.900;2023-02-15T02:01:28;15.25;;;11.32;;
39324;SDS011;25037;49.488;9.900;2023-02-15T02:06:34;19.52;;;12.60;;
39324;SDS011;25037;49.488;9.900;2023-02-15T02:09:02;15.00;;;11.02;;
39324;SDS011;25037;49.488;9.900;2023-02-15T02:11:29;15.77;;;10.88;;
39324;SDS011;25037;49.488;9.900;2023-02-15T02:13:55;16.85;;;10.88;;
39324;SDS011;25037;49.488;9.900;2023-02-15T02:25:05;17.73;;;11.00;;
39324;SDS011;25037;49.488;9.900;2023-02-15T02:31:04;17.95;;;11.80;;
39324;SDS011;25037;49.488;9.900;2023-02-15T02:38:42;16.17;;;11.35;;
39324;SDS011;25037;49.488;9.900;2023-02-15T02:49:34;17.77;;;11.95;;
39324;SDS011;25037;49.488;9.900;2023-02-15T02:52:04;18.92;;;11.77;;
39324;SDS011;25037;49.488;9.900;2023-02-15T02:54:33;19.48;;;12.13;;
39324;SDS011;25037;49.488;9.900;2023-02-15T02:57:04;19.02;;;11.88;;
39324;SDS011;25037;49.488;9.900;2023-02-15T02:59:38;18.75;;;13.25;;
39324;SDS011;25037;49.488;9.900;2023-02-15T03:02:16;18.85;;;12.85;;
39324;SDS011;25037;49.488;9.900;2023-02-15T03:04:51;17.38;;;12.07;;
39324;SDS011;25037;49.488;9.900;2023-02-15T03:07:24;17.33;;;11.35;;
39324;SDS011;25037;49.488;9.900;2023-02-15T03:09:55;16.80;;;11.18;;
39324;SDS011;25037;49.488;9.900;2023-02-15T03:12:46;17.83;;;12.15;;
39324;SDS011;25037;49.488;9.900;2023-02-15T03:15:21;16.33;;;11.93;;
39324;SDS011;25037;49.488;9.900;2023-02-15T03:17:52;17.75;;;12.40;;
39324;SDS011;25037;49.488;9.900;2023-02-15T03:20:28;16.35;;;11.15;;
39324;SDS011;25037;49.488;9.900;2023-02-15T03:23:06;19.15;;;12.52;;
39324;SDS011;25037;49.488;9.900;2023-02-15T03:25:39;20.90;;;13.07;;
39324;SDS011;25037;49.488;9.900;2023-02-15T03:28:15;18.90;;;12.00;;
39324;SDS011;25037;49.488;9.900;2023-02-15T03:30:48;17.17;;;11.32;;
39324;SDS011;25037;49.488;9.900;2023-02-15T03:33:19;17.70;;;11.90;;
39324;SDS011;25037;49.488;9.900;2023-02-15T03:35:56;18.08;;;11.50;;
39324;SDS011;25037;49.488;9.900;2023-02-15T03:38:34;16.92;;;10.95;;
39324;SDS011;25037;49.488;9.900;2023-02-15T03:41:11;18.98;;;12.68;;
39324;SDS011;25037;49.488;9.900;2023-02-15T03:49:21;21.70;;;13.93;;
39324;SDS011;25037;49.488;9.900;2023-02-15T03:51:50;19.70;;;12.73;;
39324;SDS011;25037;49.488;9.900;2023-02-15T03:54:25;19.33;;;12.45;;
39324;SDS011;25037;49.488;9.900;2023-02-15T03:57:28;18.92;;;11.75;;
39324;SDS011;25037;49.488;9.900;2023-02-15T04:00:17;21.15;;;13.15;;
39324;SDS011;25037;49.488;9.900;2023-02-15T04:05:37;18.50;;;12.40;;
39324;SDS011;25037;49.488;9.900;2023-02-15T04:08:04;19.20;;;12.77;;
39324;SDS011;25037;49.488;9.900;2023-02-15T04:10:30;23.48;;;14.43;;
39324;SDS011;25037;49.488;9.900;2023-02-15T04:13:15;19.60;;;12.27;;
39324;SDS011;25037;49.488;9.900;2023-02-15T04:15:42;20.65;;;12.60;;
39324;SDS011;25037;49.488;9.900;2023-02-15T04:18:38;19.10;;;12.18;;
39324;SDS011;25037;49.488;9.900;2023-02-15T04:21:26;19.80;;;13.82;;
39324;SDS011;25037;49.488;9.900;2023-02-15T04:24:13;21.23;;;13.45;;
39324;SDS011;25037;49.488;9.900;2023-02-15T04:26:59;22.48;;;13.35;;
39324;SDS011;25037;49.488;9.900;2023-02-15T04:29:27;21.48;;;13.70;;
39324;SDS011;25037;49.488;9.900;2023-02-15T04:31:55;23.55;;;14.73;;
39324;SDS011;25037;49.488;9.900;2023-02-15T04:34:23;22.67;;;13.88;;
39324;SDS011;25037;49.488;9.900;2023-02-15T04:36:50;20.38;;;13.70;;
39324;SDS011;25037;49.488;9.900;2023-02-15T04:39:17;24.50;;;15.25;;
39324;SDS011;25037;49.488;9.900;2023-02-15T04:41:45;21.08;;;13.68;;
39324;SDS011;25037;49.488;9.900;2023-02-15T04:44:13;19.77;;;12.63;;
39324;SDS011;25037;49.488;9.900;2023-02-15T04:46:40;19.77;;;13.35;;
39324;SDS011;25037;49.488;9.900;2023-02-15T04:49:07;19.88;;;12.80;;
39324;SDS011;25037;49.488;9.900;2023-02-15T04:51:34;21.25;;;12.77;;
39324;SDS011;25037;49.488;9.900;2023-02-15T04:54:01;21.23;;;12.95;;
39324;SDS011;25037;49.488;9.900;2023-02-15T04:56:27;21.48;;;14.38;;
39324;SDS011;25037;49.488;9.900;2023-02-15T04:58:56;21.45;;;12.98;;
39324;SDS011;25037;49.488;9.900;2023-02-15T05:01:23;20.58;;;12.98;;
39324;SDS011;25037;49.488;9.900;2023-02-15T05:03:49;24.20;;;14.98;;
39324;SDS011;25037;49.488;9.900;2023-02-15T05:06:16;20.15;;;13.15;;
39324;SDS011;25037;49.488;9.900;2023-02-15T05:08:43;19.75;;;12.32;;
39324;SDS011;25037;49.488;9.900;2023-02-15T05:11:09;20.27;;;12.38;;
39324;SDS011;25037;49.488;9.900;2023-02-15T05:13:36;18.48;;;12.70;;
39324;SDS011;25037;49.488;9.900;2023-02-15T05:16:03;20.08;;;12.23;;
39324;SDS011;25037;49.488;9.900;2023-02-15T05:18:30;18.77;;;12.30;;
39324;SDS011;25037;49.488;9.900;2023-02-15T05:20:56;21.17;;;12.32;;
39324;SDS011;25037;49.488;9.900;2023-02-15T05:23:23;18.20;;;11.73;;
39324;SDS011;25037;49.488;9.900;2023-02-15T05:25:50;17.35;;;11.90;;
39324;SDS011;25037;49.488;9.900;2023-02-15T05:28:36;19.30;;;12.40;;
39324;SDS011;25037;49.488;9.900;2023-02-15T05:33:35;20.83;;;14.23;;
39324;SDS011;25037;49.488;9.900;2023-02-15T05:36:02;19.55;;;12.38;;
39324;SDS011;25037;49.488;9.900;2023-02-15T05:38:30;18.85;;;12.88;;
39324;SDS011;25037;49.488;9.900;2023-02-15T05:40:57;19.77;;;12.93;;
39324;SDS011;25037;49.488;9.900;2023-02-15T05:43:25;20.00;;;12.20;;
39324;SDS011;25037;49.488;9.900;2023-02-15T05:45:53;17.92;;;11.48;;
39324;SDS011;25037;49.488;9.900;2023-02-15T05:48:21;18.65;;;12.45;;
39324;SDS011;25037;49.488;9.900;2023-02-15T05:51:03;18.48;;;11.43;;
39324;SDS011;25037;49.488;9.900;2023-02-15T05:53:31;17.95;;;11.82;;
39324;SDS011;25037;49.488;9.900;2023-02-15T05:55:59;18.33;;;11.80;;
39324;SDS011;25037;49.488;9.900;2023-02-15T05:58:37;20.02;;;12.27;;
39324;SDS011;25037;49.488;9.900;2023-02-15T06:01:08;20.70;;;12.07;;
39324;SDS011;25037;49.488;9.900;2023-02-15T06:03:36;20.33;;;13.07;;
39324;SDS011;25037;49.488;9.900;2023-02-15T06:06:03;19.40;;;12.45;;
39324;SDS011;25037;49.488;9.900;2023-02-15T06:08:31;20.08;;;12.35;;
39324;SDS011;25037;49.488;9.900;2023-02-15T06:10:59;20.38;;;12.50;;
39324;SDS011;25037;49.488;9.900;2023-02-15T06:13:26;18.27;;;11.93;;
39324;SDS011;25037;49.488;9.900;2023-02-15T06:15:53;16.27;;;11.30;;
39324;SDS011;25037;49.488;9.900;2023-02-15T06:18:19;17.98;;;12.15;;
39324;SDS011;25037;49.488;9.900;2023-02-15T06:20:46;21.35;;;13.32;;
39324;SDS011;25037;49.488;9.900;2023-02-15T06:23:14;18.88;;;11.48;;
39324;SDS011;25037;49.488;9.900;2023-02-15T06:25:41;19.80;;;12.60;;
39324;SDS011;25037;49.488;9.900;2023-02-15T06:28:07;19.15;;;12.48;;
39324;SDS011;25037;49.488;9.900;2023-02-15T06:30:34;17.15;;;11.98;;
39324;SDS011;25037;49.488;9.900;2023-02-15T06:33:01;18.38;;;12.32;;
39324;SDS011;25037;49.488;9.900;2023-02-15T06:35:27;20.77;;;13.00;;
39324;SDS011;25037;49.488;9.900;2023-02-15T06:37:54;18.30;;;12.68;;
39324;SDS011;25037;49.488;9.900;2023-02-15T06:40:21;18.50;;;12.38;;
39324;SDS011;25037;49.488;9.900;2023-02-15T06:42:47;18.50;;;12.00;;
39324;SDS011;25037;49.488;9.900;2023-02-15T06:45:14;19.90;;;12.95;;
39324;SDS011;25037;49.488;9.900;2023-02-15T06:47:41;21.20;;;13.68;;
39324;SDS011;25037;49.488;9.900;2023-02-15T06:50:08;18.30;;;11.93;;
39324;SDS011;25037;49.488;9.900;2023-02-15T06:52:35;19.23;;;12.20;;
39324;SDS011;25037;49.488;9.900;2023-02-15T06:55:02;19.52;;;13.35;;
39324;SDS011;25037;49.488;9.900;2023-02-15T06:57:29;20.17;;;13.20;;
39324;SDS011;25037;49.488;9.900;2023-02-15T06:59:56;17.42;;;12.35;;
39324;SDS011;25037;49.488;9.900;2023-02-15T07:02:24;18.45;;;12.52;;
39324;SDS011;25037;49.488;9.900;2023-02-15T07:04:51;19.30;;;12.43;;
39324;SDS011;25037;49.488;9.900;2023-02-15T07:07:18;19.80;;;12.48;;
39324;SDS011;25037;49.488;9.900;2023-02-15T07:09:44;20.02;;;12.65;;
39324;SDS011;25037;49.488;9.900;2023-02-15T07:12:11;18.70;;;12.82;;
39324;SDS011;25037;49.488;9.900;2023-02-15T07:14:56;18.33;;;12.10;;
39324;SDS011;25037;49.488;9.900;2023-02-15T07:17:24;18.42;;;11.68;;
39324;SDS011;25037;49.488;9.900;2023-02-15T07:20:06;17.88;;;11.43;;
39324;SDS011;25037;49.488;9.900;2023-02-15T07:22:37;17.48;;;10.70;;
39324;SDS011;25037;49.488;9.900;2023-02-15T07:25:04;18.17;;;12.38;;
39324;SDS011;25037;49.488;9.900;2023-02-15T07:27:33;16.48;;;11.25;;
39324;SDS011;25037;49.488;9.900;2023-02-15T07:30:00;19.08;;;12.70;;
39324;SDS011;25037;49.488;9.900;2023-02-15T07:32:28;18.75;;;12.73;;
39324;SDS011;25037;49.488;9.900;2023-02-15T07:34:56;18.77;;;12.45;;
39324;SDS011;25037;49.488;9.900;2023-02-15T07:37:23;20.75;;;12.85;;
39324;SDS011;25037;49.488;9.900;2023-02-15T07:39:50;18.70;;;12.90;;
39324;SDS011;25037;49.488;9.900;2023-02-15T07:42:16;17.20;;;11.80;;
39324;SDS011;25037;49.488;9.900;2023-02-15T07:44:43;19.50;;;13.70;;
39324;SDS011;25037;49.488;9.900;2023-02-15T07:47:10;17.63;;;12.20;;
39324;SDS011;25037;49.488;9.900;2023-02-15T07:49:38;17.90;;;12.73;;
39324;SDS011;25037;49.488;9.900;2023-02-15T07:52:04;20.00;;;12.73;;
39324;SDS011;25037;49.488;9.900;2023-02-15T07:54:31;18.80;;;12.23;;
39324;SDS011;25037;49.488;9.900;2023-02-15T07:56:58;18.60;;;12.23;;
39324;SDS011;25037;49.488;9.900;2023-02-15T07:59:26;18.45;;;12.63;;
39324;SDS011;25037;49.488;9.900;2023-02-15T08:01:53;20.02;;;12.57;;
39324;SDS011;25037;49.488;9.900;2023-02-15T08:04:22;17.98;;;11.50;;
39324;SDS011;25037;49.488;9.900;2023-02-15T08:06:52;18.10;;;12.27;;
39324;SDS011;25037;49.488;9.900;2023-02-15T08:09:20;18.77;;;13.05;;
39324;SDS011;25037;49.488;9.900;2023-02-15T08:11:47;16.23;;;11.43;;
39324;SDS011;25037;49.488;9.900;2023-02-15T08:14:18;18.63;;;12.85;;
39324;SDS011;25037;49.488;9.900;2023-02-15T08:16:50;19.20;;;13.77;;
39324;SDS011;25037;49.488;9.900;2023-02-15T08:21:51;16.48;;;11.85;;
39324;SDS011;25037;49.488;9.900;2023-02-15T08:24:20;18.02;;;12.63;;
39324;SDS011;25037;49.488;9.900;2023-02-15T08:26:48;19.70;;;13.10;;
39324;SDS011;25037;49.488;9.900;2023-02-15T08:29:17;16.45;;;11.93;;
39324;SDS011;25037;49.488;9.900;2023-02-15T08:31:45;16.45;;;12.10;;
39324;SDS011;25037;49.488;9.900;2023-02-15T08:34:14;16.80;;;12.02;;
39324;SDS011;25037;49.488;9.900;2023-02-15T08:36:42;18.60;;;13.18;;
39324;SDS011;25037;49.488;9.900;2023-02-15T08:39:11;16.48;;;12.30;;
39324;SDS011;25037;49.488;9.900;2023-02-15T08:41:39;16.98;;;11.82;;
39324;SDS011;25037;49.488;9.900;2023-02-15T08:44:08;16.15;;;12.10;;
39324;SDS011;25037;49.488;9.900;2023-02-15T08:46:38;17.63;;;12.07;;
39324;SDS011;25037;49.488;9.900;2023-02-15T08:49:07;17.13;;;12.13;;
39324;SDS011;25037;49.488;9.900;2023-02-15T08:51:36;18.35;;;12.32;;
39324;SDS011;25037;49.488;9.900;2023-02-15T08:54:06;16.67;;;11.88;;
39324;SDS011;25037;49.488;9.900;2023-02-15T08:56:38;16.73;;;11.88;;
39324;SDS011;25037;49.488;9.900;2023-02-15T08:59:07;17.95;;;12.45;;
39324;SDS011;25037;49.488;9.900;2023-02-15T09:01:42;17.35;;;12.65;;
39324;SDS011;25037;49.488;9.900;2023-02-15T09:04:09;16.30;;;12.38;;
39324;SDS011;25037;49.488;9.900;2023-02-15T09:06:37;16.50;;;11.45;;
39324;SDS011;25037;49.488;9.900;2023-02-15T09:09:05;15.27;;;11.45;;
39324;SDS011;25037;49.488;9.900;2023-02-15T09:11:34;17.48;;;12.45;;
39324;SDS011;25037;49.488;9.900;2023-02-15T09:14:06;14.57;;;10.85;;
39324;SDS011;25037;49.488;9.900;2023-02-15T09:16:40;14.68;;;11.35;;
39324;SDS011;25037;49.488;9.900;2023-02-15T09:19:07;15.57;;;11.48;;
39324;SDS011;25037;49.488;9.900;2023-02-15T09:21:35;15.20;;;11.68;;
39324;SDS011;25037;49.488;9.900;2023-02-15T09:24:04;15.98;;;12.25;;
39324;SDS011;25037;49.488;9.900;2023-02-15T09:26:34;15.63;;;11.65;;
39324;SDS011;25037;49.488;9.900;2023-02-15T09:29:03;15.40;;;11.68;;
39324;SDS011;25037;49.488;9.900;2023-02-15T09:31:32;16.63;;;11.90;;
39324;SDS011;25037;49.488;9.900;2023-02-15T09:34:03;16.42;;;11.43;;
39324;SDS011;25037;49.488;9.900;2023-02-15T09:36:37;15.15;;;11.57;;
39324;SDS011;25037;49.488;9.900;2023-02-15T09:39:06;15.20;;;11.63;;
39324;SDS011;25037;49.488;9.900;2023-02-15T09:50:21;14.35;;;10.90;;
39324;SDS011;25037;49.488;9.900;2023-02-15T09:58:40;16.42;;;11.85;;
39324;SDS011;25037;49.488;9.900;2023-02-15T10:12:18;15.38;;;11.95;;
39324;SDS011;25037;49.488;9.900;2023-02-15T10:17:51;15.35;;;11.82;;
39324;SDS011;25037;49.488;9.900;2023-02-15T10:26:36;14.57;;;11.40;;
39324;SDS011;25037;49.488;9.900;2023-02-15T10:29:09;15.90;;;12.18;;
39324;SDS011;25037;49.488;9.900;2023-02-15T10:31:51;14.07;;;11.25;;
39324;SDS011;25037;49.488;9.900;2023-02-15T10:45:36;13.73;;;10.98;;
39324;SDS011;25037;49.488;9.900;2023-02-15T10:51:16;13.27;;;11.23;;
39324;SDS011;25037;49.488;9.900;2023-02-15T11:05:31;13.32;;;10.90;;
39324;SDS011;25037;49.488;9.900;2023-02-15T11:08:19;15.98;;;11.38;;
39324;SDS011;25037;49.488;9.900;2023-02-15T11:10:52;14.27;;;10.88;;
39324;SDS011;25037;49.488;9.900;2023-02-15T11:13:23;14.18;;;11.32;;
39324;SDS011;25037;49.488;9.900;2023-02-15T11:15:58;16.85;;;11.90;;
39324;SDS011;25037;49.488;9.900;2023-02-15T11:18:32;14.45;;;11.70;;
39324;SDS011;25037;49.488;9.900;2023-02-15T11:21:04;14.80;;;11.68;;
39324;SDS011;25037;49.488;9.900;2023-02-15T11:23:50;15.10;;;11.35;;
39324;SDS011;25037;49.488;9.900;2023-02-15T11:26:20;13.82;;;11.63;;
39324;SDS011;25037;49.488;9.900;2023-02-15T11:29:25;14.88;;;11.07;;
39324;SDS011;25037;49.488;9.900;2023-02-15T11:32:01;14.57;;;10.85;;
39324;SDS011;25037;49.488;9.900;2023-02-15T11:35:11;16.02;;;11.60;;
39324;SDS011;25037;49.488;9.900;2023-02-15T11:38:02;15.75;;;12.15;;
39324;SDS011;25037;49.488;9.900;2023-02-15T11:40:55;14.23;;;11.25;;
39324;SDS011;25037;49.488;9.900;2023-02-15T11:43:37;13.70;;;11.32;;
39324;SDS011;25037;49.488;9.900;2023-02-15T11:46:24;14.18;;;11.15;;
39324;SDS011;25037;49.488;9.900;2023-02-15T11:48:51;13.90;;;11.07;;
39324;SDS011;25037;49.488;9.900;2023-02-15T11:51:18;12.60;;;10.32;;
39324;SDS011;25037;49.488;9.900;2023-02-15T11:53:49;14.25;;;11.43;;
39324;SDS011;25037;49.488;9.900;2023-02-15T11:56:18;13.95;;;11.60;;
39324;SDS011;25037;49.488;9.900;2023-02-15T11:58:48;13.75;;;10.70;;
39324;SDS011;25037;49.488;9.900;2023-02-15T12:01:18;13.55;;;11.38;;
39324;SDS011;25037;49.488;9.900;2023-02-15T12:04:01;14.75;;;11.82;;
39324;SDS011;25037;49.488;9.900;2023-02-15T12:06:34;14.20;;;11.15;;
39324;SDS011;25037;49.488;9.900;2023-02-15T12:09:06;13.93;;;11.38;;
39324;SDS011;25037;49.488;9.900;2023-02-15T12:11:37;16.05;;;11.75;;
39324;SDS011;25037;49.488;9.900;2023-02-15T12:14:06;15.65;;;12.25;;
39324;SDS011;25037;49.488;9.900;2023-02-15T12:16:42;15.43;;;11.35;;
39324;SDS011;25037;49.488;9.900;2023-02-15T12:21:53;13.55;;;10.90;;
39324;SDS011;25037;49.488;9.900;2023-02-15T12:24:24;15.63;;;12.32;;
39324;SDS011;25037;49.488;9.900;2023-02-15T12:29:51;13.85;;;11.63;;
39324;SDS011;25037;49.488;9.900;2023-02-15T12:32:25;15.05;;;12.05;;
39324;SDS011;25037;49.488;9.900;2023-02-15T12:35:00;14.73;;;11.80;;
39324;SDS011;25037;49.488;9.900;2023-02-15T12:37:33;14.05;;;11.68;;
39324;SDS011;25037;49.488;9.900;2023-02-15T12:40:02;14.55;;;12.05;;
39324;SDS011;25037;49.488;9.900;2023-02-15T12:45:27;15.20;;;12.00;;
39324;SDS011;25037;49.488;9.900;2023-02-15T12:50:46;14.05;;;11.95;;
39324;SDS011;25037;49.488;9.900;2023-02-15T12:53:21;15.70;;;12.70;;
39324;SDS011;25037;49.488;9.900;2023-02-15T12:55:56;15.93;;;12.60;;
39324;SDS011;25037;49.488;9.900;2023-02-15T12:58:25;13.63;;;11.70;;
39324;SDS011;25037;49.488;9.900;2023-02-15T13:01:10;15.27;;;12.07;;
39324;SDS011;25037;49.488;9.900;2023-02-15T13:06:25;15.98;;;12.93;;
39324;SDS011;25037;49.488;9.900;2023-02-15T13:08:57;15.82;;;12.32;;
39324;SDS011;25037;49.488;9.900;2023-02-15T13:11:31;14.23;;;12.07;;
39324;SDS011;25037;49.488;9.900;2023-02-15T13:14:01;14.55;;;11.52;;
39324;SDS011;25037;49.488;9.900;2023-02-15T13:16:31;16.58;;;11.80;;
39324;SDS011;25037;49.488;9.900;2023-02-15T13:19:05;14.32;;;12.32;;
39324;SDS011;25037;49.488;9.900;2023-02-15T13:21:39;14.27;;;12.00;;
39324;SDS011;25037;49.488;9.900;2023-02-15T13:24:23;15.80;;;12.18;;
39324;SDS011;25037;49.488;9.900;2023-02-15T13:26:54;14.05;;;11.63;;
39324;SDS011;25037;49.488;9.900;2023-02-15T13:29:39;14.55;;;12.38;;
39324;SDS011;25037;49.488;9.900;2023-02-15T13:32:25;15.50;;;12.38;;
39324;SDS011;25037;49.488;9.900;2023-02-15T13:35:03;15.05;;;12.70;;
39324;SDS011;25037;49.488;9.900;2023-02-15T13:38:16;15.80;;;12.48;;
39324;SDS011;25037;49.488;9.900;2023-02-15T13:40:29;14.88;;;12.68;;
39324;SDS011;25037;49.488;9.900;2023-02-15T13:48:49;16.15;;;13.45;;
39324;SDS011;25037;49.488;9.900;2023-02-15T13:51:21;15.70;;;13.10;;
39324;SDS011;25037;49.488;9.900;2023-02-15T13:54:11;16.70;;;12.73;;
39324;SDS011;25037;49.488;9.900;2023-02-15T14:19:36;17.17;;;13.30;;
39324;SDS011;25037;49.488;9.900;2023-02-15T14:22:15;18.08;;;12.63;;
39324;SDS011;25037;49.488;9.900;2023-02-15T14:30:42;15.65;;;12.55;;
39324;SDS011;25037;49.488;9.900;2023-02-15T14:35:42;18.73;;;14.23;;
39324;SDS011;25037;49.488;9.900;2023-02-15T14:46:20;16.35;;;12.75;;
39324;SDS011;25037;49.488;9.900;2023-02-15T14:48:48;18.90;;;13.25;;
39324;SDS011;25037;49.488;9.900;2023-02-15T14:54:06;18.63;;;14.10;;
39324;SDS011;25037;49.488;9.900;2023-02-15T14:56:33;19.88;;;14.27;;
39324;SDS011;25037;49.488;9.900;2023-02-15T14:59:22;16.83;;;13.50;;
39324;SDS011;25037;49.488;9.900;2023-02-15T15:01:55;18.58;;;14.05;;
39324;SDS011;25037;49.488;9.900;2023-02-15T15:04:40;16.58;;;13.13;;
39324;SDS011;25037;49.488;9.900;2023-02-15T15:07:26;17.67;;;13.82;;
39324;SDS011;25037;49.488;9.900;2023-02-15T15:10:46;16.27;;;12.85;;
39324;SDS011;25037;49.488;9.900;2023-02-15T15:13:34;18.50;;;13.73;;
39324;SDS011;25037;49.488;9.900;2023-02-15T15:16:23;17.83;;;13.82;;
39324;SDS011;25037;49.488;9.900;2023-02-15T15:18:57;19.05;;;13.63;;
39324;SDS011;25037;49.488;9.900;2023-02-15T15:21:51;18.88;;;14.10;;
39324;SDS011;25037;49.488;9.900;2023-02-15T15:30:46;18.30;;;13.50;;
39324;SDS011;25037;49.488;9.900;2023-02-15T15:33:17;19.85;;;14.10;;
39324;SDS011;25037;49.488;9.900;2023-02-15T15:39:12;23.90;;;15.40;;
39324;SDS011;25037;49.488;9.900;2023-02-15T15:42:32;24.40;;;15.82;;
39324;SDS011;25037;49.488;9.900;2023-02-15T15:45:14;22.27;;;15.40;;
39324;SDS011;25037;49.488;9.900;2023-02-15T15:50:56;20.77;;;15.00;;
39324;SDS011;25037;49.488;9.900;2023-02-15T15:53:27;23.23;;;15.85;;
39324;SDS011;25037;49.488;9.900;2023-02-15T15:56:04;23.55;;;16.45;;
39324;SDS011;25037;49.488;9.900;2023-02-15T15:58:33;27.15;;;16.60;;
39324;SDS011;25037;49.488;9.900;2023-02-15T16:01:04;21.85;;;15.93;;
39324;SDS011;25037;49.488;9.900;2023-02-15T16:03:37;26.45;;;16.02;;
39324;SDS011;25037;49.488;9.900;2023-02-15T16:06:04;24.65;;;16.00;;
39324;SDS011;25037;49.488;9.900;2023-02-15T16:08:35;24.55;;;16.77;;
39324;SDS011;25037;49.488;9.900;2023-02-15T16:11:12;22.08;;;16.10;;
39324;SDS011;25037;49.488;9.900;2023-02-15T16:13:42;22.27;;;14.88;;
39324;SDS011;25037;49.488;9.900;2023-02-15T16:16:11;26.45;;;17.33;;
39324;SDS011;25037;49.488;9.900;2023-02-15T16:18:39;21.75;;;15.18;;
39324;SDS011;25037;49.488;9.900;2023-02-15T16:21:12;24.27;;;16.15;;
39324;SDS011;25037;49.488;9.900;2023-02-15T16:24:01;26.52;;;17.17;;
39324;SDS011;25037;49.488;9.900;2023-02-15T16:27:04;23.20;;;16.00;;
39324;SDS011;25037;49.488;9.900;2023-02-15T16:29:42;24.20;;;17.00;;
39324;SDS011;25037;49.488;9.900;2023-02-15T16:32:16;24.58;;;16.50;;
39324;SDS011;25037;49.488;9.900;2023-02-15T16:34:51;24.73;;;16.63;;
39324;SDS011;25037;49.488;9.900;2023-02-15T16:37:24;25.63;;;16.05;;
39324;SDS011;25037;49.488;9.900;2023-02-15T16:39:54;23.80;;;16.45;;
39324;SDS011;25037;49.488;9.900;2023-02-15T16:42:21;25.77;;;17.25;;
39324;SDS011;25037;49.488;9.900;2023-02-15T16:44:50;22.85;;;15.57;;
39324;SDS011;25037;49.488;9.900;2023-02-15T16:47:24;28.13;;;18.10;;
39324;SDS011;25037;49.488;9.900;2023-02-15T16:49:55;29.40;;;17.88;;
39324;SDS011;25037;49.488;9.900;2023-02-15T16:52:26;29.10;;;18.65;;
39324;SDS011;25037;49.488;9.900;2023-02-15T16:55:04;29.13;;;18.75;;
39324;SDS011;25037;49.488;9.900;2023-02-15T16:57:33;28.65;;;18.33;;
39324;SDS011;25037;49.488;9.900;2023-02-15T17:00:06;29.83;;;18.63;;
39324;SDS011;25037;49.488;9.900;2023-02-15T17:02:52;27.80;;;17.95;;
39324;SDS011;25037;49.488;9.900;2023-02-15T17:05:40;27.50;;;17.88;;
39324;SDS011;25037;49.488;9.900;2023-02-15T17:08:23;25.45;;;17.17;;
39324;SDS011;25037;49.488;9.900;2023-02-15T17:13:26;28.65;;;17.38;;
39324;SDS011;25037;49.488;9.900;2023-02-15T17:18:28;26.35;;;16.45;;
39324;SDS011;25037;49.488;9.900;2023-02-15T17:20:57;29.00;;;18.15;;
39324;SDS011;25037;49.488;9.900;2023-02-15T17:23:35;29.30;;;18.17;;
39324;SDS011;25037;49.488;9.900;2023-02-15T17:28:46;33.63;;;19.55;;
39324;SDS011;25037;49.488;9.900;2023-02-15T17:31:26;38.75;;;22.73;;
39324;SDS011;25037;49.488;9.900;2023-02-15T17:33:58;37.42;;;20.63;;
39324;SDS011;25037;49.488;9.900;2023-02-15T17:36:26;34.22;;;19.63;;
39324;SDS011;25037;49.488;9.900;2023-02-15T17:41:27;32.22;;;19.50;;
39324;SDS011;25037;49.488;9.900;2023-02-15T17:43:55;34.22;;;21.35;;
39324;SDS011;25037;49.488;9.900;2023-02-15T17:46:22;29.98;;;18.95;;
39324;SDS011;25037;49.488;9.900;2023-02-15T17:48:51;32.10;;;18.92;;
39324;SDS011;25037;49.488;9.900;2023-02-15T17:51:20;30.70;;;20.63;;
39324;SDS011;25037;49.488;9.900;2023-02-15T17:53:48;31.38;;;19.25;;
39324;SDS011;25037;49.488;9.900;2023-02-15T17:56:35;34.78;;;20.77;;
39324;SDS011;25037;49.488;9.900;2023-02-15T17:59:02;41.03;;;26.10;;